Time;durP1;ratioP1;P1;durP2;ratioP2;P2;SDS_P1;SDS_P2;PMS_P1;PMS_P2;Temp;Humidity;BMP_temperature;BMP_pressure;BME280_temperature;BME280_humidity;BME280_pressure;Samples;Min_cycle;Max_cycle;Signal;HPM_P1;HPM_P2
2023/02/07 00:13:04;;;;;;;24.17;8.63;;;;;;;;;;6198366;23;20197;-92
2023/02/07 00:16:10;;;;;;;23.47;8.43;;;;;;;;;;6208997;23;20156;-89
2023/02/07 00:23:04;;;;;;;18.77;8.13;;;;;;;;;;6208043;23;20148;-90
2023/02/07 00:26:11;;;;;;;20.93;7.43;;;;;;;;;;6192487;23;20164;-90
2023/02/07 00:29:18;;;;;;;42.37;15.07;;;;;;;;;;6209509;23;20276;-90
2023/02/07 00:32:24;;;;;;;23.83;7.60;;;;;;;;;;6209484;23;20171;-89
2023/02/07 00:35:30;;;;;;;26.17;10.90;;;;;;;;;;6208401;23;20168;-91
2023/02/07 00:38:36;;;;;;;25.53;9.40;;;;;;;;;;6208933;23;20156;-91
2023/02/07 00:41:42;;;;;;;18.40;7.77;;;;;;;;;;6208462;23;20192;-89
2023/02/07 00:44:49;;;;;;;17.90;8.37;;;;;;;;;;6204162;23;20196;-90
2023/02/07 00:47:54;;;;;;;26.00;7.90;;;;;;;;;;6208101;23;20216;-90
2023/02/07 00:51:00;;;;;;;29.33;8.60;;;;;;;;;;6208007;23;20205;-88
2023/02/07 00:54:08;;;;;;;29.43;9.50;;;;;;;;;;6203624;23;20215;-89
2023/02/07 00:57:14;;;;;;;34.60;9.57;;;;;;;;;;6204057;23;20176;-89
2023/02/07 01:00:21;;;;;;;22.60;9.33;;;;;;;;;;6205727;23;20172;-89
2023/02/07 01:03:27;;;;;;;24.47;9.50;;;;;;;;;;6206179;23;20168;-88
2023/02/07 01:06:35;;;;;;;27.10;9.37;;;;;;;;;;6206795;23;20163;-88
2023/02/07 01:09:41;;;;;;;22.43;9.00;;;;;;;;;;6205948;23;20196;-89
2023/02/07 02:05:37;;;;;;;23.70;9.53;;;;;;;;;;6245727;22;20524;-89
2023/02/07 02:08:42;;;;;;;26.23;9.63;;;;;;;;;;6244784;23;20190;-91
2023/02/07 02:11:58;;;;;;;23.57;8.90;;;;;;;;;;6244394;23;20166;-89
2023/02/07 02:15:08;;;;;;;16.63;6.33;;;;;;;;;;6245153;22;20157;-89
2023/02/07 02:18:32;;;;;;;26.83;8.60;;;;;;;;;;6244135;23;20174;-88
2023/02/07 02:21:55;;;;;;;22.83;7.33;;;;;;;;;;6245987;23;20162;-91
2023/02/07 02:25:17;;;;;;;24.80;10.67;;;;;;;;;;6244525;22;20166;-88
2023/02/07 02:28:37;;;;;;;20.33;9.07;;;;;;;;;;6243593;22;20195;-89
2023/02/07 02:32:04;;;;;;;25.57;9.73;;;;;;;;;;6243939;22;20167;-88
2023/02/07 02:35:14;;;;;;;26.87;10.67;;;;;;;;;;6244479;23;20178;-88
2023/02/07 02:38:24;;;;;;;19.23;7.47;;;;;;;;;;6244661;22;20179;-89
2023/02/07 02:41:32;;;;;;;20.00;8.20;;;;;;;;;;6244706;23;20167;-88
2023/02/07 02:44:40;;;;;;;27.67;9.63;;;;;;;;;;6245213;23;20166;-89
2023/02/07 02:47:48;;;;;;;22.90;9.03;;;;;;;;;;6243556;23;20170;-89
2023/02/07 02:50:56;;;;;;;26.20;10.13;;;;;;;;;;6244281;22;20166;-88
2023/02/07 02:54:01;;;;;;;22.73;8.60;;;;;;;;;;6261923;22;20162;-88
2023/02/07 02:57:27;;;;;;;20.33;8.27;;;;;;;;;;6244605;23;20162;-88
2023/02/07 03:00:49;;;;;;;24.80;10.07;;;;;;;;;;6243301;23;20259;-89
2023/02/07 03:04:00;;;;;;;24.63;10.17;;;;;;;;;;6260616;23;20220;-88
2023/02/07 03:07:14;;;;;;;23.83;9.53;;;;;;;;;;6260278;22;20170;-89
2023/02/07 03:10:24;;;;;;;24.73;9.87;;;;;;;;;;6242810;23;20154;-92
2023/02/07 03:13:29;;;;;;;24.07;9.97;;;;;;;;;;6242868;23;20171;-90
2023/02/07 03:16:36;;;;;;;27.53;11.20;;;;;;;;;;6242132;23;20166;-88
2023/02/07 03:19:44;;;;;;;27.20;10.43;;;;;;;;;;6244610;22;20207;-88
2023/02/07 03:22:52;;;;;;;25.87;10.53;;;;;;;;;;6244229;22;20154;-88
2023/02/07 03:25:59;;;;;;;26.03;10.37;;;;;;;;;;6263158;22;20151;-89
2023/02/07 03:29:05;;;;;;;21.33;8.20;;;;;;;;;;6263628;22;20313;-91
2023/02/07 03:32:11;;;;;;;23.67;7.37;;;;;;;;;;6243750;23;20166;-88
2023/02/07 03:35:20;;;;;;;26.40;8.83;;;;;;;;;;6245013;22;20146;-88
2023/02/07 03:38:26;;;;;;;23.37;9.77;;;;;;;;;;6243329;22;20219;-90
2023/02/07 03:41:34;;;;;;;25.83;10.77;;;;;;;;;;6244624;22;20150;-90
2023/02/07 03:44:41;;;;;;;25.43;10.70;;;;;;;;;;6263475;22;20249;-89
2023/02/07 03:47:46;;;;;;;24.77;10.13;;;;;;;;;;6243370;23;20174;-88
2023/02/07 03:50:52;;;;;;;25.93;11.00;;;;;;;;;;6244712;22;20162;-88
2023/02/07 03:53:58;;;;;;;26.80;11.23;;;;;;;;;;6245128;22;20180;-88
2023/02/07 03:57:04;;;;;;;26.70;10.20;;;;;;;;;;6244831;22;20219;-90
2023/02/07 04:00:15;;;;;;;23.97;9.77;;;;;;;;;;6244451;22;20225;-88
2023/02/07 04:03:20;;;;;;;27.10;10.07;;;;;;;;;;6243980;23;20166;-92
2023/02/07 04:06:26;;;;;;;28.30;10.10;;;;;;;;;;6261809;22;20155;-90
2023/02/07 04:09:32;;;;;;;26.03;9.97;;;;;;;;;;6242932;22;20657;-88
2023/02/07 04:12:40;;;;;;;24.30;10.03;;;;;;;;;;6243713;23;20159;-90
2023/02/07 04:15:45;;;;;;;25.07;9.83;;;;;;;;;;6261403;22;20170;-91
2023/02/07 04:19:22;;;;;;;25.27;9.83;;;;;;;;;;6243514;23;20190;-88
2023/02/07 04:22:27;;;;;;;27.10;10.17;;;;;;;;;;6244420;22;20163;-89
2023/02/07 04:25:34;;;;;;;21.93;9.37;;;;;;;;;;6243450;23;20151;-91
2023/02/07 04:28:39;;;;;;;27.43;10.43;;;;;;;;;;6244379;22;20194;-89
2023/02/07 04:31:45;;;;;;;25.53;10.77;;;;;;;;;;6245105;23;20165;-89
2023/02/07 04:34:50;;;;;;;27.80;10.63;;;;;;;;;;6243619;23;20166;-86
2023/02/07 04:37:56;;;;;;;24.53;10.20;;;;;;;;;;6260309;22;20159;-89
2023/02/07 04:41:04;;;;;;;26.50;10.23;;;;;;;;;;6261942;22;20206;-90
2023/02/07 04:44:09;;;;;;;30.57;9.40;;;;;;;;;;6262892;22;20167;-92
2023/02/07 04:47:14;;;;;;;22.67;10.43;;;;;;;;;;6244818;23;20506;-90
2023/02/07 04:50:19;;;;;;;25.23;9.97;;;;;;;;;;6242979;23;20672;-88
2023/02/07 04:53:25;;;;;;;24.70;10.20;;;;;;;;;;6242494;23;20190;-89
2023/02/07 04:56:31;;;;;;;29.50;10.63;;;;;;;;;;6241806;23;20170;-90
2023/02/07 04:59:36;;;;;;;27.27;10.50;;;;;;;;;;6243472;22;20171;-89
2023/02/07 05:02:43;;;;;;;29.10;10.33;;;;;;;;;;6242475;22;20163;-89
2023/02/07 05:05:48;;;;;;;29.47;10.30;;;;;;;;;;6241233;23;20236;-89
2023/02/07 05:08:53;;;;;;;25.03;10.33;;;;;;;;;;6259797;22;20202;-91
2023/02/07 05:12:00;;;;;;;28.30;10.50;;;;;;;;;;6258958;23;20174;-88
2023/02/07 05:15:06;;;;;;;29.80;10.50;;;;;;;;;;6261588;22;20190;-92
2023/02/07 05:18:12;;;;;;;25.07;10.13;;;;;;;;;;6242634;23;20171;-91
2023/02/07 05:21:17;;;;;;;28.17;10.93;;;;;;;;;;6260355;22;20174;-92
2023/02/07 05:24:22;;;;;;;27.10;10.93;;;;;;;;;;6261440;22;20173;-89
2023/02/07 05:27:29;;;;;;;29.50;11.23;;;;;;;;;;6260852;23;20167;-90
2023/02/07 05:30:35;;;;;;;30.00;11.07;;;;;;;;;;6244639;23;20194;-90
2023/02/07 05:33:40;;;;;;;26.90;10.00;;;;;;;;;;6261761;22;20166;-89
2023/02/07 05:36:45;;;;;;;28.30;10.60;;;;;;;;;;6263387;23;20173;-91
2023/02/07 05:39:51;;;;;;;25.07;9.63;;;;;;;;;;6243936;22;20166;-89
2023/02/07 05:42:57;;;;;;;29.10;10.17;;;;;;;;;;6243340;22;20171;-89
2023/02/07 05:46:02;;;;;;;27.57;10.27;;;;;;;;;;6260194;22;20184;-89
2023/02/07 05:49:07;;;;;;;26.17;10.30;;;;;;;;;;6260300;23;20206;-89
2023/02/07 05:52:13;;;;;;;26.07;10.23;;;;;;;;;;6244721;23;20162;-89
2023/02/07 05:55:18;;;;;;;32.63;10.10;;;;;;;;;;6257655;23;20171;-88
2023/02/07 05:58:26;;;;;;;22.00;9.63;;;;;;;;;;6256698;22;20147;-90
2023/02/07 06:01:58;;;;;;;33.70;11.03;;;;;;;;;;6238826;22;20187;-89
2023/02/07 06:05:03;;;;;;;25.97;10.73;;;;;;;;;;6243925;23;20190;-88
2023/02/07 06:08:08;;;;;;;26.13;10.10;;;;;;;;;;6243592;23;20209;-88
2023/02/07 06:11:14;;;;;;;24.27;10.53;;;;;;;;;;6244406;22;20155;-90
2023/02/07 06:14:21;;;;;;;27.13;11.10;;;;;;;;;;6261925;22;20166;-89
2023/02/07 06:17:27;;;;;;;28.83;10.90;;;;;;;;;;6262049;22;20146;-90
2023/02/07 06:20:33;;;;;;;29.53;10.53;;;;;;;;;;6246505;22;20198;-92
2023/02/07 06:23:39;;;;;;;34.63;11.53;;;;;;;;;;6243193;23;20231;-90
2023/02/07 06:26:45;;;;;;;25.83;11.60;;;;;;;;;;6242341;22;20174;-91
2023/02/07 06:29:52;;;;;;;34.03;12.33;;;;;;;;;;6243792;22;20221;-92
2023/02/07 06:32:57;;;;;;;31.60;12.30;;;;;;;;;;6247053;23;20208;-90
2023/02/07 06:39:02;;;;;;;34.37;11.00;;;;;;;;;;6211981;23;20207;-92
2023/02/07 06:42:08;;;;;;;35.10;13.03;;;;;;;;;;6213513;23;20233;-90
2023/02/07 06:48:40;;;;;;;32.53;12.73;;;;;;;;;;6234446;23;20171;-88
2023/02/07 06:51:50;;;;;;;31.33;11.30;;;;;;;;;;6214796;23;20222;-89
2023/02/07 06:54:55;;;;;;;32.93;12.93;;;;;;;;;;6214708;23;20230;-92
2023/02/07 06:58:01;;;;;;;30.27;13.20;;;;;;;;;;6215633;23;20196;-88
2023/02/07 07:01:08;;;;;;;36.23;13.07;;;;;;;;;;6212902;23;20236;-90
2023/02/07 07:04:14;;;;;;;36.53;13.07;;;;;;;;;;6217469;23;20203;-88
2023/02/07 07:07:27;;;;;;;34.80;12.47;;;;;;;;;;6215928;23;20163;-89
2023/02/07 07:10:33;;;;;;;29.93;12.63;;;;;;;;;;6217416;23;20238;-90
2023/02/07 07:13:39;;;;;;;38.73;13.77;;;;;;;;;;6215724;23;20151;-89
2023/02/07 07:16:46;;;;;;;35.97;13.00;;;;;;;;;;6212327;23;20187;-89
2023/02/07 07:20:08;;;;;;;41.20;13.47;;;;;;;;;;6214997;23;20502;-89
2023/02/07 07:23:13;;;;;;;34.50;12.13;;;;;;;;;;6213515;23;20195;-91
2023/02/07 07:26:18;;;;;;;29.83;12.40;;;;;;;;;;6212953;23;20163;-89
2023/02/07 07:29:24;;;;;;;37.73;12.37;;;;;;;;;;6214949;23;20198;-91
2023/02/07 07:32:30;;;;;;;32.03;12.70;;;;;;;;;;6215791;23;20174;-88
2023/02/07 07:35:36;;;;;;;35.23;12.20;;;;;;;;;;6215651;23;20187;-88
2023/02/07 07:38:41;;;;;;;32.17;11.63;;;;;;;;;;6214987;23;20282;-90
2023/02/07 07:41:47;;;;;;;27.23;11.33;;;;;;;;;;6213956;23;20269;-90
2023/02/07 07:45:07;;;;;;;37.70;12.87;;;;;;;;;;6213495;23;20599;-89
2023/02/07 07:48:13;;;;;;;32.43;12.10;;;;;;;;;;6213567;23;20167;-88
2023/02/07 07:51:18;;;;;;;28.03;10.90;;;;;;;;;;6215138;23;20191;-89
2023/02/07 07:54:23;;;;;;;31.13;11.13;;;;;;;;;;6214397;23;20346;-89
2023/02/07 07:57:30;;;;;;;28.17;8.93;;;;;;;;;;6214719;23;20162;-88
2023/02/07 08:00:35;;;;;;;22.53;8.50;;;;;;;;;;6215737;23;20195;-91
2023/02/07 08:03:44;;;;;;;25.07;9.30;;;;;;;;;;6217580;23;20155;-90
2023/02/07 08:06:50;;;;;;;31.90;11.17;;;;;;;;;;6216820;23;20259;-89
2023/02/07 08:09:55;;;;;;;31.23;10.40;;;;;;;;;;6216311;23;20207;-90
2023/02/07 08:13:00;;;;;;;15.37;5.57;;;;;;;;;;6214845;23;20163;-89
2023/02/07 08:16:07;;;;;;;27.00;9.13;;;;;;;;;;6216775;23;20200;-89
2023/02/07 08:19:13;;;;;;;28.30;10.90;;;;;;;;;;6217015;23;20167;-89
2023/02/07 08:22:19;;;;;;;41.40;20.93;;;;;;;;;;6217875;23;20187;-89
2023/02/07 08:25:25;;;;;;;25.80;8.53;;;;;;;;;;6216187;23;20239;-89
2023/02/07 08:28:32;;;;;;;25.20;9.43;;;;;;;;;;6216811;23;20163;-89
2023/02/07 08:31:38;;;;;;;30.97;9.33;;;;;;;;;;6217820;23;20163;-88
2023/02/07 08:35:00;;;;;;;26.70;10.50;;;;;;;;;;6218456;23;20166;-88
2023/02/07 08:38:13;;;;;;;32.20;11.47;;;;;;;;;;6219752;23;20195;-89
2023/02/07 08:41:19;;;;;;;22.53;9.30;;;;;;;;;;6216634;23;20614;-91
2023/02/07 08:44:24;;;;;;;19.77;8.93;;;;;;;;;;6218339;23;20163;-90
2023/02/07 08:47:30;;;;;;;24.63;7.80;;;;;;;;;;6215918;23;20155;-91
2023/02/07 08:50:36;;;;;;;18.03;5.87;;;;;;;;;;6215554;23;20219;-89
2023/02/07 08:53:43;;;;;;;18.00;8.03;;;;;;;;;;6217731;23;20170;-92
2023/02/07 08:56:48;;;;;;;21.27;8.30;;;;;;;;;;6217151;23;20171;-88
2023/02/07 08:59:54;;;;;;;25.27;9.73;;;;;;;;;;6215481;23;20187;-90
2023/02/07 09:03:02;;;;;;;29.77;10.97;;;;;;;;;;6215660;23;20179;-89
2023/02/07 09:06:09;;;;;;;31.77;10.67;;;;;;;;;;6216269;23;20195;-89
2023/02/07 09:09:17;;;;;;;28.23;10.00;;;;;;;;;;6215751;23;20167;-90
2023/02/07 09:12:22;;;;;;;34.03;10.57;;;;;;;;;;6215790;23;20230;-90
2023/02/07 09:15:27;;;;;;;26.33;9.83;;;;;;;;;;6214622;23;20172;-90
2023/02/07 09:18:33;;;;;;;34.63;10.63;;;;;;;;;;6215477;23;20179;-90
2023/02/07 09:21:38;;;;;;;33.20;11.07;;;;;;;;;;6213554;23;20289;-89
2023/02/07 09:24:45;;;;;;;30.47;10.50;;;;;;;;;;6214977;23;20219;-90
2023/02/07 09:27:50;;;;;;;29.33;9.87;;;;;;;;;;6214449;23;20167;-88
2023/02/07 09:30:58;;;;;;;30.03;10.50;;;;;;;;;;6213911;23;20191;-88
2023/02/07 09:34:04;;;;;;;28.17;10.60;;;;;;;;;;6215314;23;20151;-90
2023/02/07 09:37:09;;;;;;;31.87;10.70;;;;;;;;;;6215286;23;20167;-89
2023/02/07 09:40:18;;;;;;;32.20;11.57;;;;;;;;;;6214958;23;20155;-89
2023/02/07 09:43:28;;;;;;;28.30;10.33;;;;;;;;;;6215649;23;20183;-89
2023/02/07 09:46:36;;;;;;;29.60;10.70;;;;;;;;;;6215146;23;20171;-88
2023/02/07 09:49:44;;;;;;;40.73;12.83;;;;;;;;;;6215786;23;20180;-88
2023/02/07 09:52:50;;;;;;;41.90;13.73;;;;;;;;;;6212773;23;20211;-90
2023/02/07 09:55:59;;;;;;;30.87;11.90;;;;;;;;;;6217231;23;20179;-88
2023/02/07 09:59:06;;;;;;;35.60;11.47;;;;;;;;;;6215933;23;20174;-88
2023/02/07 10:02:29;;;;;;;27.57;10.53;;;;;;;;;;6217740;23;20170;-89
2023/02/07 10:05:39;;;;;;;29.40;11.07;;;;;;;;;;6219221;23;20187;-89
2023/02/07 10:08:45;;;;;;;25.80;10.20;;;;;;;;;;6218486;23;20175;-91
2023/02/07 10:11:53;;;;;;;26.43;9.97;;;;;;;;;;6216330;23;20198;-91
2023/02/07 10:15:12;;;;;;;32.93;11.07;;;;;;;;;;6217494;23;20178;-91
2023/02/07 10:18:35;;;;;;;22.47;10.37;;;;;;;;;;6218567;23;20155;-91
2023/02/07 10:21:45;;;;;;;24.70;9.00;;;;;;;;;;6218759;23;20234;-90
2023/02/07 10:24:58;;;;;;;25.80;9.17;;;;;;;;;;6219315;23;20167;-89
2023/02/07 10:28:16;;;;;;;30.03;10.77;;;;;;;;;;6218089;23;20622;-90
2023/02/07 10:31:23;;;;;;;30.07;10.13;;;;;;;;;;6218435;23;20247;-90
2023/02/07 13:19:32;;;;;;;20.20;7.80;;;;;;;;;;6180702;23;20280;-88
2023/02/07 13:22:41;;;;;;;22.47;8.47;;;;;;;;;;6199781;23;20171;-89
2023/02/07 13:25:48;;;;;;;24.43;9.27;;;;;;;;;;6201448;23;20237;-90
2023/02/07 13:28:57;;;;;;;15.33;6.27;;;;;;;;;;6202323;23;20168;-87
2023/02/07 13:32:04;;;;;;;36.83;11.67;;;;;;;;;;6202090;23;20252;-91
2023/02/07 13:35:15;;;;;;;17.23;5.97;;;;;;;;;;6205806;23;20200;-91
2023/02/07 13:38:23;;;;;;;20.37;5.80;;;;;;;;;;6202574;23;20170;-89
2023/02/07 13:41:34;;;;;;;12.90;5.03;;;;;;;;;;6201191;23;20179;-89
2023/02/07 13:44:43;;;;;;;17.87;6.00;;;;;;;;;;6200834;23;20298;-90
2023/02/07 13:47:54;;;;;;;13.23;5.20;;;;;;;;;;6200057;23;20172;-88
2023/02/07 13:51:13;;;;;;;11.83;4.97;;;;;;;;;;6183799;23;20271;-88
2023/02/07 13:54:28;;;;;;;11.37;4.90;;;;;;;;;;6201954;23;20265;-90
2023/02/07 14:01:35;;;;;;;21.77;9.33;;;;;;;;;;6202514;23;20220;-90
2023/02/07 14:04:48;;;;;;;16.30;6.37;;;;;;;;;;6204008;23;20234;-90
2023/02/07 14:07:58;;;;;;;18.10;5.23;;;;;;;;;;6202702;23;20171;-88
2023/02/07 14:11:20;;;;;;;19.47;4.93;;;;;;;;;;6201843;23;20204;-90
2023/02/07 14:14:26;;;;;;;11.93;4.40;;;;;;;;;;6203718;23;20164;-89
2023/02/07 14:17:53;;;;;;;11.80;3.87;;;;;;;;;;6202753;23;20215;-91
2023/02/07 14:21:01;;;;;;;9.77;4.20;;;;;;;;;;6203579;23;20168;-89
2023/02/07 14:24:21;;;;;;;11.40;4.70;;;;;;;;;;6201549;23;20160;-88
2023/02/07 14:27:33;;;;;;;10.97;4.73;;;;;;;;;;6202917;23;20172;-88
2023/02/07 14:30:41;;;;;;;26.13;5.03;;;;;;;;;;6203254;23;20179;-90
2023/02/07 14:34:11;;;;;;;11.80;4.53;;;;;;;;;;6203826;23;20172;-89
2023/02/07 14:37:22;;;;;;;25.30;5.30;;;;;;;;;;6202437;23;20215;-88
2023/02/07 14:40:33;;;;;;;29.77;6.80;;;;;;;;;;6202899;23;20172;-89
2023/02/07 23:20:03;;;;;;;20.70;6.93;;;;;;;;;;6144848;23;20174;-89
2023/02/07 23:23:09;;;;;;;20.50;7.93;;;;;;;;;;6127284;23;20593;-89
2023/02/07 23:26:15;;;;;;;25.57;9.53;;;;;;;;;;6125772;23;20189;-89
2023/02/07 23:29:20;;;;;;;25.37;8.10;;;;;;;;;;6126669;23;20201;-88
2023/02/07 23:32:25;;;;;;;20.73;7.83;;;;;;;;;;6125175;23;20200;-87
2023/02/07 23:35:32;;;;;;;24.30;8.47;;;;;;;;;;6124569;23;20186;-88
2023/02/07 23:38:39;;;;;;;22.00;7.83;;;;;;;;;;6125032;23;20245;-89
2023/02/07 23:41:44;;;;;;;24.63;8.23;;;;;;;;;;6124985;23;20157;-89
2023/02/07 23:44:50;;;;;;;21.53;6.73;;;;;;;;;;6126612;23;20149;-89
2023/02/07 23:47:57;;;;;;;27.90;8.40;;;;;;;;;;6125948;23;20185;-88
2023/02/07 23:51:04;;;;;;;21.33;7.57;;;;;;;;;;6127366;23;20196;-88
2023/02/07 23:54:09;;;;;;;23.43;8.13;;;;;;;;;;6126991;23;20603;-90
2023/02/07 23:57:15;;;;;;;21.77;8.17;;;;;;;;;;6125244;23;20165;-89
